Time;durP1;ratioP1;P1;durP2;ratioP2;P2;SDS_P1;SDS_P2;PMS_P1;PMS_P2;Temp;Humidity;BMP_temperature;BMP_pressure;BME280_temperature;BME280_humidity;BME280_pressure;Samples;Min_cycle;Max_cycle;Signal;HPM_P1;HPM_P2
2022/08/28 00:01:02;;;;;;;2.65;2.17;;;18.00;99.90;;;;;;5094143;28;20040;-80
2022/08/28 00:03:28;;;;;;;3.47;2.17;;;18.00;99.90;;;;;;5092856;28;20070;-76
2022/08/28 00:05:54;;;;;;;5.18;3.05;;;18.00;99.90;;;;;;5094170;28;20391;-78
2022/08/28 00:08:19;;;;;;;5.28;2.60;;;18.00;99.90;;;;;;5094198;28;20055;-78
2022/08/28 00:10:45;;;;;;;5.28;2.30;;;18.00;99.90;;;;;;5092699;28;20018;-79
2022/08/28 00:13:17;;;;;;;3.88;2.72;;;18.00;99.90;;;;;;5093833;28;20417;-80
2022/08/28 00:15:43;;;;;;;3.92;2.50;;;18.00;99.90;;;;;;5093898;28;20031;-77
2022/08/28 00:18:09;;;;;;;3.70;2.78;;;18.00;99.90;;;;;;5092325;28;20051;-78
2022/08/28 00:20:35;;;;;;;4.90;2.50;;;18.00;99.90;;;;;;5092511;28;20371;-78
2022/08/28 00:23:02;;;;;;;4.70;2.33;;;18.00;99.90;;;;;;5093607;28;20416;-77
2022/08/28 00:25:29;;;;;;;4.25;2.10;;;18.00;99.90;;;;;;5092314;28;20073;-78
2022/08/28 00:27:58;;;;;;;3.00;2.17;;;17.90;99.90;;;;;;5092469;28;20535;-77
2022/08/28 00:30:47;;;;;;;2.92;2.63;;;18.00;99.90;;;;;;5092425;28;20131;-78
2022/08/28 00:33:19;;;;;;;4.00;2.53;;;18.00;99.90;;;;;;5093715;28;20081;-77
2022/08/28 00:35:46;;;;;;;5.78;3.00;;;18.00;99.90;;;;;;5093846;28;20023;-77
2022/08/28 00:38:13;;;;;;;3.40;2.60;;;18.00;99.90;;;;;;5093231;28;20020;-78
2022/08/28 00:40:41;;;;;;;3.63;2.47;;;18.00;99.90;;;;;;5092445;28;20016;-78
2022/08/28 00:43:08;;;;;;;8.57;2.50;;;18.00;99.90;;;;;;5092275;28;20031;-79
2022/08/28 00:45:34;;;;;;;3.08;2.33;;;17.90;99.90;;;;;;5092152;28;20077;-78
2022/08/28 00:48:00;;;;;;;5.43;2.72;;;17.90;99.90;;;;;;5092053;28;20024;-78
2022/08/28 00:52:04;;;;;;;4.40;2.40;;;17.90;99.90;;;;;;5093230;28;20022;-78
2022/08/28 00:53:21;;;;;;;3.67;2.67;;;18.00;99.90;;;;;;5093189;28;20024;-78
2022/08/28 00:55:49;;;;;;;6.57;2.03;;;18.00;99.90;;;;;;5093267;28;20051;-80
2022/08/28 00:58:15;;;;;;;2.72;2.28;;;18.00;99.90;;;;;;5091923;28;20021;-77
2022/08/28 01:00:41;;;;;;;4.93;2.58;;;17.90;99.90;;;;;;5093245;28;20032;-78
2022/08/28 01:03:07;;;;;;;4.53;2.00;;;18.00;99.90;;;;;;5091584;28;20058;-79
2022/08/28 01:05:35;;;;;;;3.05;2.35;;;18.00;99.90;;;;;;5091763;28;20077;-80
2022/08/28 01:08:03;;;;;;;3.05;2.15;;;18.00;99.90;;;;;;5091817;28;20024;-78
2022/08/28 01:10:31;;;;;;;7.63;2.13;;;18.00;99.90;;;;;;5093231;28;20034;-78
2022/08/28 01:12:57;;;;;;;3.05;2.20;;;18.00;99.90;;;;;;5093006;28;20085;-76
2022/08/28 01:15:27;;;;;;;3.30;1.92;;;18.00;99.90;;;;;;5092829;28;20509;-79
2022/08/28 01:17:58;;;;;;;3.15;2.25;;;18.00;99.90;;;;;;5091035;28;20497;-79
2022/08/28 01:20:28;;;;;;;5.55;2.30;;;18.00;99.90;;;;;;5092918;28;20060;-77
2022/08/28 01:22:56;;;;;;;4.95;1.98;;;17.90;99.90;;;;;;5092780;28;20095;-77
2022/08/28 01:25:23;;;;;;;2.40;2.20;;;18.00;99.90;;;;;;5091750;28;20058;-78
2022/08/28 01:27:48;;;;;;;3.22;2.30;;;17.90;99.90;;;;;;5091360;28;20016;-77
2022/08/28 01:30:18;;;;;;;4.50;2.10;;;18.00;99.90;;;;;;5091230;28;20072;-78
2022/08/28 01:32:48;;;;;;;2.42;2.00;;;18.00;99.90;;;;;;5091164;28;20069;-76
2022/08/28 01:35:22;;;;;;;5.47;2.78;;;18.00;99.90;;;;;;5091364;28;20106;-78
2022/08/28 01:37:48;;;;;;;2.38;2.15;;;17.90;99.90;;;;;;5091159;28;20035;-77
2022/08/28 01:40:21;;;;;;;3.58;2.50;;;17.90;99.90;;;;;;5092511;28;20027;-77
2022/08/28 01:42:47;;;;;;;5.55;2.60;;;17.90;99.90;;;;;;5092561;28;20028;-77
2022/08/28 01:45:15;;;;;;;2.60;2.33;;;17.90;99.90;;;;;;5092393;28;20020;-77
2022/08/28 01:47:43;;;;;;;7.13;2.50;;;18.00;99.90;;;;;;5091128;28;20400;-77
2022/08/28 01:50:12;;;;;;;3.13;2.60;;;18.00;99.90;;;;;;5092568;28;20043;-77
2022/08/28 01:52:37;;;;;;;3.85;2.80;;;18.00;99.90;;;;;;5092271;28;20107;-78
2022/08/28 01:55:05;;;;;;;3.17;2.50;;;18.00;99.90;;;;;;5090995;28;20439;-78
2022/08/28 01:57:31;;;;;;;2.60;2.10;;;17.90;99.90;;;;;;5092127;28;20497;-79
2022/08/28 01:59:57;;;;;;;3.70;2.40;;;18.00;99.90;;;;;;5092442;28;20024;-79
2022/08/28 02:02:23;;;;;;;4.25;2.30;;;17.90;99.90;;;;;;5090866;28;20555;-78
2022/08/28 02:04:48;;;;;;;2.47;2.28;;;17.90;99.90;;;;;;5092046;28;20024;-80
2022/08/28 02:07:15;;;;;;;3.45;2.40;;;17.90;99.90;;;;;;5090658;28;20028;-77
2022/08/28 02:09:41;;;;;;;3.90;2.88;;;17.90;99.90;;;;;;5090647;28;20016;-79
2022/08/28 02:12:07;;;;;;;3.55;2.70;;;17.90;99.90;;;;;;5092266;28;20144;-77
2022/08/28 02:14:33;;;;;;;3.60;2.95;;;17.90;99.90;;;;;;5090572;28;20374;-77
2022/08/28 02:16:58;;;;;;;4.55;2.38;;;17.80;99.90;;;;;;5090408;28;20429;-77
2022/08/28 02:19:24;;;;;;;8.45;3.25;;;17.80;99.90;;;;;;5095400;28;20056;-79
2022/08/28 02:21:50;;;;;;;2.38;2.17;;;17.80;99.90;;;;;;5096002;28;20073;-78
2022/08/28 02:24:16;;;;;;;6.05;2.72;;;17.80;99.90;;;;;;5095046;28;20028;-80
2022/08/28 02:26:43;;;;;;;3.50;3.03;;;17.80;99.90;;;;;;5096081;28;20016;-78
2022/08/28 02:29:10;;;;;;;6.35;2.80;;;17.80;99.90;;;;;;5096004;28;20028;-79
2022/08/28 02:31:36;;;;;;;5.50;2.33;;;17.80;99.90;;;;;;5096166;28;20028;-78
2022/08/28 02:34:02;;;;;;;3.58;2.92;;;17.90;99.90;;;;;;5095739;28;20146;-79
2022/08/28 02:36:28;;;;;;;4.78;3.05;;;17.90;99.90;;;;;;5094812;28;20066;-79
2022/08/28 02:38:54;;;;;;;16.42;3.13;;;17.90;99.90;;;;;;5094461;28;20028;-79
2022/08/28 02:41:20;;;;;;;3.38;2.63;;;17.90;99.90;;;;;;5094434;28;20467;-78
2022/08/28 02:43:45;;;;;;;7.05;2.55;;;17.90;99.90;;;;;;5095737;28;20128;-78
2022/08/28 02:46:11;;;;;;;4.88;2.85;;;17.80;99.90;;;;;;5094400;28;20043;-78
2022/08/28 02:48:39;;;;;;;4.13;2.65;;;17.80;99.90;;;;;;5094214;28;20024;-78
2022/08/28 02:51:08;;;;;;;5.50;2.60;;;17.90;99.90;;;;;;5094470;28;20024;-79
2022/08/28 02:53:35;;;;;;;2.65;2.35;;;17.80;99.90;;;;;;5095484;28;20506;-79
2022/08/28 02:56:01;;;;;;;4.35;2.45;;;17.90;99.90;;;;;;5093447;28;20039;-81
2022/08/28 02:58:31;;;;;;;5.40;3.00;;;17.90;99.90;;;;;;5094080;28;20032;-79
2022/08/28 03:01:01;;;;;;;4.00;2.42;;;17.80;99.90;;;;;;5095555;28;20077;-77
2022/08/28 03:03:29;;;;;;;3.70;2.15;;;17.90;99.90;;;;;;5093961;28;20040;-78
2022/08/28 03:05:56;;;;;;;2.75;2.25;;;17.80;99.90;;;;;;5094238;28;20031;-77
2022/08/28 03:08:23;;;;;;;3.92;2.42;;;17.80;99.90;;;;;;5094105;28;20763;-80
2022/08/28 03:10:49;;;;;;;3.17;2.78;;;17.80;99.90;;;;;;5095057;28;20074;-78
2022/08/28 03:13:16;;;;;;;6.53;3.05;;;17.90;99.90;;;;;;5093759;28;20425;-77
2022/08/28 03:15:42;;;;;;;4.20;3.03;;;17.80;99.90;;;;;;5095213;28;20012;-78
2022/08/28 03:18:09;;;;;;;4.28;3.55;;;17.80;99.90;;;;;;5094898;28;20048;-79
2022/08/28 03:20:34;;;;;;;4.95;3.72;;;17.80;99.90;;;;;;5093859;28;20020;-79
2022/08/28 03:25:44;;;;;;;5.47;3.05;;;17.80;99.90;;;;;;5095102;28;20482;-78
2022/08/28 03:28:10;;;;;;;5.40;3.13;;;17.80;99.90;;;;;;5094711;28;20020;-78
2022/08/28 03:30:36;;;;;;;4.15;3.35;;;17.80;99.90;;;;;;5093757;28;20020;-78
2022/08/28 03:33:02;;;;;;;4.25;3.13;;;17.70;99.90;;;;;;5094848;28;20151;-78
2022/08/28 03:35:28;;;;;;;3.88;3.17;;;17.70;99.90;;;;;;5094979;28;20020;-77
2022/08/28 03:37:53;;;;;;;4.30;3.75;;;17.70;99.90;;;;;;5094841;28;20031;-76
2022/08/28 03:40:20;;;;;;;4.38;3.50;;;17.60;99.90;;;;;;5094633;28;20028;-77
2022/08/28 03:42:46;;;;;;;5.93;3.70;;;17.60;99.90;;;;;;5094643;28;20370;-78
2022/08/28 03:45:12;;;;;;;4.32;3.05;;;17.50;99.90;;;;;;5094376;28;20095;-77
2022/08/28 03:47:40;;;;;;;5.05;3.40;;;17.50;99.90;;;;;;5094908;28;20028;-80
2022/08/28 03:50:11;;;;;;;6.13;3.47;;;17.90;99.90;;;;;;5094211;28;20023;-79
2022/08/28 03:52:38;;;;;;;5.95;3.85;;;18.40;99.90;;;;;;5095646;28;20047;-77
2022/08/28 03:55:07;;;;;;;5.10;4.53;;;18.70;99.90;;;;;;5098058;28;20024;-78
2022/08/28 03:57:34;;;;;;;4.95;4.43;;;19.00;99.90;;;;;;5094351;28;20425;-78
2022/08/28 04:00:00;;;;;;;6.82;3.92;;;19.20;99.90;;;;;;5093416;28;20085;-77
2022/08/28 04:02:27;;;;;;;5.45;3.88;;;19.20;99.90;;;;;;5093213;28;20081;-77
2022/08/28 04:04:52;;;;;;;6.32;3.53;;;19.30;99.90;;;;;;5094535;28;20052;-77
2022/08/28 04:07:19;;;;;;;4.82;3.05;;;19.30;99.90;;;;;;5094565;28;20039;-77
2022/08/28 04:09:45;;;;;;;3.67;3.38;;;19.20;99.90;;;;;;5094418;28;20031;-77
2022/08/28 04:12:11;;;;;;;4.78;3.25;;;19.10;99.90;;;;;;5093420;28;20024;-78
2022/08/28 04:14:37;;;;;;;9.15;2.70;;;19.00;99.90;;;;;;5092950;28;20016;-76
2022/08/28 04:17:04;;;;;;;7.20;3.55;;;19.00;99.90;;;;;;5094218;28;20080;-77
2022/08/28 04:19:30;;;;;;;6.00;3.03;;;19.10;99.90;;;;;;5092860;28;20055;-77
2022/08/28 04:21:55;;;;;;;4.07;3.40;;;19.40;99.90;;;;;;5092777;28;20677;-77
2022/08/28 04:24:21;;;;;;;6.13;3.55;;;19.60;99.90;;;;;;5094113;28;20032;-77
2022/08/28 04:26:47;;;;;;;7.40;3.10;;;19.80;99.90;;;;;;5092813;28;20469;-77
2022/08/28 04:29:13;;;;;;;4.22;2.80;;;19.80;99.90;;;;;;5092682;28;20378;-78
2022/08/28 04:31:39;;;;;;;3.05;2.75;;;19.70;99.90;;;;;;5093770;28;20027;-77
2022/08/28 04:34:08;;;;;;;7.45;2.88;;;19.40;99.90;;;;;;5092290;28;20020;-78
2022/08/28 04:36:34;;;;;;;3.17;2.70;;;19.30;99.90;;;;;;5093986;28;20105;-77
2022/08/28 04:39:01;;;;;;;3.35;2.80;;;19.10;99.90;;;;;;5092488;28;20016;-77
2022/08/28 04:41:27;;;;;;;4.15;2.78;;;19.10;99.90;;;;;;5092032;28;20039;-76
2022/08/28 04:43:56;;;;;;;4.80;3.17;;;19.00;99.90;;;;;;5094053;28;20040;-77
2022/08/28 04:46:22;;;;;;;4.80;2.83;;;19.00;99.90;;;;;;5094344;28;20077;-79
2022/08/28 04:48:48;;;;;;;3.22;2.78;;;19.00;99.90;;;;;;5094364;28;20154;-78
2022/08/28 04:51:14;;;;;;;5.57;2.63;;;19.00;99.90;;;;;;5092267;28;20485;-78
2022/08/28 04:53:40;;;;;;;5.15;3.38;;;18.90;99.90;;;;;;5093573;28;20016;-78
2022/08/28 04:56:09;;;;;;;3.53;2.92;;;18.90;99.90;;;;;;5091619;28;20093;-79
2022/08/28 04:58:35;;;;;;;4.63;3.22;;;19.00;99.90;;;;;;5092140;28;20476;-78
2022/08/28 05:01:26;;;;;;;5.05;3.20;;;19.00;99.90;;;;;;5093066;28;20019;-79
2022/08/28 05:03:56;;;;;;;4.72;2.78;;;19.00;99.90;;;;;;5091679;28;20085;-78
2022/08/28 05:06:25;;;;;;;4.43;2.78;;;18.80;99.90;;;;;;5093616;28;20024;-79
2022/08/28 05:08:51;;;;;;;4.10;3.40;;;19.00;99.90;;;;;;5092043;28;20496;-77
2022/08/28 05:11:20;;;;;;;5.60;3.15;;;18.90;99.90;;;;;;5091375;28;20027;-77
2022/08/28 05:13:47;;;;;;;4.10;2.95;;;18.90;99.90;;;;;;5092449;28;20077;-78
2022/08/28 05:16:14;;;;;;;5.25;4.22;;;18.80;99.90;;;;;;5091301;28;20152;-76
2022/08/28 05:18:40;;;;;;;4.85;3.45;;;18.80;99.90;;;;;;5092450;28;20533;-77
2022/08/28 05:21:20;;;;;;;4.55;3.38;;;18.70;99.90;;;;;;5093313;28;20043;-79
2022/08/28 05:23:48;;;;;;;5.10;3.95;;;18.80;99.90;;;;;;5093002;28;20646;-77
2022/08/28 05:26:16;;;;;;;5.05;2.88;;;18.80;99.90;;;;;;5093052;28;20024;-77
2022/08/28 05:28:42;;;;;;;8.05;4.82;;;18.70;99.90;;;;;;5092822;28;20069;-76
2022/08/28 05:31:15;;;;;;;4.25;3.72;;;18.80;99.90;;;;;;5091452;28;20028;-78
2022/08/28 05:33:43;;;;;;;4.38;3.58;;;18.90;99.90;;;;;;5091409;28;20063;-78
2022/08/28 05:36:09;;;;;;;9.07;3.13;;;18.80;99.90;;;;;;5091539;28;20012;-78
2022/08/28 05:38:35;;;;;;;3.90;3.25;;;18.70;99.90;;;;;;5092248;28;20552;-78
2022/08/28 05:41:02;;;;;;;3.75;3.20;;;18.60;99.90;;;;;;5090742;28;20024;-79
2022/08/28 05:43:28;;;;;;;2.90;2.65;;;18.40;99.90;;;;;;5091069;28;20039;-78
2022/08/28 05:45:59;;;;;;;4.50;3.80;;;18.40;99.90;;;;;;5091256;28;20375;-78
2022/08/28 05:48:30;;;;;;;6.90;3.83;;;18.30;99.90;;;;;;5091196;28;20500;-78
2022/08/28 05:50:57;;;;;;;3.75;3.13;;;18.30;99.90;;;;;;5091600;28;20020;-77
2022/08/28 05:53:24;;;;;;;8.15;3.10;;;18.40;99.90;;;;;;5090647;28;20086;-78
2022/08/28 05:55:51;;;;;;;4.03;3.47;;;18.40;99.90;;;;;;5091335;28;20491;-77
2022/08/28 05:58:30;;;;;;;7.18;3.67;;;18.50;99.90;;;;;;5095910;28;20028;-79
2022/08/28 06:01:18;;;;;;;3.47;2.88;;;18.60;99.90;;;;;;5092189;28;20475;-79
2022/08/28 06:03:52;;;;;;;4.20;3.10;;;18.60;99.90;;;;;;5092440;28;20028;-78
2022/08/28 06:06:17;;;;;;;6.55;3.20;;;18.60;99.90;;;;;;5076207;28;20016;-80
2022/08/28 06:08:43;;;;;;;3.53;2.70;;;17.60;99.90;;;;;;5093116;28;20027;-77
2022/08/28 06:11:08;;;;;;;3.67;2.78;;;18.80;99.90;;;;;;5091548;28;20024;-80
2022/08/28 06:13:35;;;;;;;3.83;3.00;;;19.10;99.90;;;;;;5090874;28;20020;-77
2022/08/28 06:16:01;;;;;;;5.38;3.85;;;19.10;99.90;;;;;;5091392;28;20024;-78
2022/08/28 06:18:27;;;;;;;7.63;2.83;;;19.30;99.90;;;;;;5090580;28;20555;-79
2022/08/28 06:20:53;;;;;;;5.50;2.92;;;19.20;99.90;;;;;;5093049;28;20475;-78
2022/08/28 06:23:21;;;;;;;4.35;2.92;;;19.20;99.90;;;;;;5092460;28;20040;-78
2022/08/28 06:25:49;;;;;;;3.25;2.95;;;19.20;99.90;;;;;;5091600;28;20398;-77
2022/08/28 06:28:19;;;;;;;4.13;3.58;;;19.20;99.90;;;;;;5092402;28;20100;-78
2022/08/28 06:30:45;;;;;;;5.03;3.55;;;19.30;99.90;;;;;;5092000;28;20024;-79
2022/08/28 06:33:12;;;;;;;9.23;3.85;;;19.10;99.90;;;;;;5092188;28;20032;-79
2022/08/28 06:35:47;;;;;;;5.22;3.10;;;19.30;99.90;;;;;;5092669;28;20585;-75
2022/08/28 06:38:14;;;;;;;5.65;3.53;;;19.40;99.90;;;;;;5091457;28;20057;-78
2022/08/28 06:40:41;;;;;;;4.72;3.60;;;19.40;99.90;;;;;;5091277;28;20344;-78
2022/08/28 06:43:08;;;;;;;3.20;2.80;;;19.40;99.90;;;;;;5091919;28;20028;-78
2022/08/28 06:45:39;;;;;;;3.35;3.03;;;19.40;99.90;;;;;;5091878;28;20391;-78
2022/08/28 06:48:05;;;;;;;4.15;3.22;;;19.50;99.90;;;;;;5092251;28;20024;-78
2022/08/28 06:50:31;;;;;;;4.90;3.47;;;19.60;99.90;;;;;;5092018;28;20020;-78
2022/08/28 06:52:57;;;;;;;3.22;2.92;;;19.70;99.90;;;;;;5090025;28;20039;-79
2022/08/28 06:55:23;;;;;;;4.40;2.97;;;19.70;99.90;;;;;;5090535;28;20463;-79
2022/08/28 06:57:49;;;;;;;3.83;2.90;;;19.60;99.90;;;;;;5092161;28;20032;-76
2022/08/28 07:00:15;;;;;;;4.00;3.60;;;19.60;99.90;;;;;;5090904;28;20035;-78
2022/08/28 07:02:40;;;;;;;3.75;3.42;;;19.80;99.90;;;;;;5091446;28;20387;-77
2022/08/28 07:05:07;;;;;;;3.38;3.05;;;19.80;99.90;;;;;;5094347;28;20020;-78
2022/08/28 07:07:33;;;;;;;5.00;3.58;;;19.90;99.90;;;;;;5095940;28;20051;-78
2022/08/28 07:09:59;;;;;;;4.93;3.63;;;20.00;99.90;;;;;;5096550;28;20479;-78
2022/08/28 07:12:25;;;;;;;3.75;3.45;;;20.10;99.90;;;;;;5094367;28;20081;-80
2022/08/28 07:14:50;;;;;;;6.13;3.70;;;20.20;99.90;;;;;;5095091;28;20477;-76
2022/08/28 07:17:16;;;;;;;7.38;3.38;;;20.30;99.90;;;;;;5094994;28;20051;-77
2022/08/28 07:19:41;;;;;;;4.88;3.15;;;20.30;99.90;;;;;;5094777;28;20086;-77
2022/08/28 07:22:07;;;;;;;4.25;3.10;;;20.20;99.90;;;;;;5094383;28;20114;-77
2022/08/28 07:24:33;;;;;;;3.28;2.97;;;20.30;99.90;;;;;;5095391;28;20036;-77
2022/08/28 07:26:58;;;;;;;4.70;3.47;;;20.40;99.90;;;;;;5094795;28;20468;-78
2022/08/28 07:29:24;;;;;;;4.32;3.53;;;20.40;99.90;;;;;;5095066;28;20365;-79
2022/08/28 07:31:52;;;;;;;5.07;3.90;;;20.50;99.90;;;;;;5094008;28;20024;-79
2022/08/28 07:34:20;;;;;;;4.28;3.88;;;20.60;99.90;;;;;;5095694;28;20031;-78
2022/08/28 07:36:46;;;;;;;5.55;3.35;;;20.60;99.90;;;;;;5094125;28;20055;-79
2022/08/28 07:39:14;;;;;;;4.28;2.97;;;20.70;99.90;;;;;;5093420;28;20028;-78
2022/08/28 07:41:41;;;;;;;4.13;3.70;;;20.90;99.90;;;;;;5095393;28;20020;-78
2022/08/28 07:46:55;;;;;;;4.20;3.78;;;21.10;99.90;;;;;;5095957;28;20099;-77
2022/08/28 07:49:21;;;;;;;5.45;4.22;;;21.30;99.90;;;;;;5094049;28;20046;-79
2022/08/28 07:51:46;;;;;;;4.28;3.75;;;21.40;99.90;;;;;;5095006;28;20625;-76
2022/08/28 07:54:12;;;;;;;4.28;3.88;;;21.40;99.90;;;;;;5092669;28;20036;-77
2022/08/28 07:56:41;;;;;;;4.53;3.33;;;21.60;99.90;;;;;;5087793;28;20024;-77
2022/08/28 07:59:09;;;;;;;4.03;3.33;;;21.70;99.90;;;;;;5073340;28;20028;-77
2022/08/28 08:01:41;;;;;;;4.30;3.17;;;22.00;99.90;;;;;;5074589;28;20032;-77
2022/08/28 08:04:09;;;;;;;3.78;3.42;;;22.10;99.90;;;;;;5074807;28;20028;-79
2022/08/28 08:06:36;;;;;;;4.30;3.45;;;22.30;99.90;;;;;;5074220;28;20016;-76
2022/08/28 08:09:08;;;;;;;4.20;3.70;;;22.40;99.90;;;;;;5073680;28;20086;-76
2022/08/28 08:11:34;;;;;;;3.53;3.22;;;22.60;99.90;;;;;;5074471;28;20031;-80
2022/08/28 08:14:03;;;;;;;3.88;3.45;;;22.70;99.90;;;;;;5074352;28;20025;-78
2022/08/28 08:16:32;;;;;;;3.90;3.42;;;22.80;99.90;;;;;;5072064;28;20024;-79
2022/08/28 08:18:58;;;;;;;4.28;3.72;;;22.90;99.90;;;;;;5072945;28;20055;-79
2022/08/28 08:21:25;;;;;;;3.80;3.40;;;22.90;99.90;;;;;;5073047;28;20549;-79
2022/08/28 08:23:50;;;;;;;4.15;3.35;;;23.00;99.90;;;;;;5073886;28;20062;-77
2022/08/28 08:26:20;;;;;;;3.75;2.88;;;23.10;99.90;;;;;;5074110;28;20102;-80
2022/08/28 08:28:47;;;;;;;13.95;3.10;;;23.10;99.90;;;;;;5072701;28;20024;-81
2022/08/28 08:31:28;;;;;;;4.00;2.72;;;23.10;99.90;;;;;;5073615;28;20082;-77
2022/08/28 08:34:00;;;;;;;2.92;2.38;;;23.10;99.90;;;;;;5073663;28;20506;-81
2022/08/28 08:36:27;;;;;;;5.82;2.55;;;23.00;99.90;;;;;;5073861;28;20371;-78
2022/08/28 08:38:54;;;;;;;3.47;2.15;;;23.10;99.90;;;;;;5073498;28;20529;-80
2022/08/28 08:41:46;;;;;;;2.78;2.03;;;23.10;99.90;;;;;;5073815;28;20037;-81
2022/08/28 08:44:33;;;;;;;2.28;2.08;;;23.10;99.90;;;;;;5074109;28;20067;-76
2022/08/28 08:47:18;;;;;;;4.47;3.10;;;23.10;99.90;;;;;;5073939;28;20410;-78
2022/08/28 08:50:13;;;;;;;3.27;2.33;;;23.10;99.90;;;;;;5073332;28;20034;-79
2022/08/28 08:53:07;;;;;;;2.20;2.00;;;23.10;99.90;;;;;;5072598;28;20060;-78
2022/08/28 08:55:43;;;;;;;4.95;2.88;;;23.10;99.90;;;;;;5072266;28;20027;-77
2022/08/28 08:58:32;;;;;;;2.00;1.90;;;23.10;99.90;;;;;;5073023;28;20024;-78
2022/08/28 09:01:27;;;;;;;4.70;2.65;;;23.20;99.90;;;;;;5073368;28;20107;-79
2022/08/28 09:03:56;;;;;;;3.97;2.65;;;23.30;99.90;;;;;;5072043;28;20391;-77
2022/08/28 09:06:39;;;;;;;3.20;2.10;;;23.40;99.90;;;;;;5072512;28;20051;-79
2022/08/28 09:09:15;;;;;;;7.93;2.40;;;23.50;99.90;;;;;;5074274;28;20025;-79
2022/08/28 09:12:00;;;;;;;2.40;2.13;;;23.60;99.90;;;;;;5056228;28;20032;-76
2022/08/28 09:14:56;;;;;;;2.53;2.20;;;23.70;99.90;;;;;;5071584;28;20085;-79
2022/08/28 09:17:29;;;;;;;3.10;2.17;;;23.90;99.90;;;;;;5071631;28;20028;-78
2022/08/28 09:19:55;;;;;;;3.03;1.88;;;24.10;99.90;;;;;;5071594;28;20081;-80
2022/08/28 09:22:21;;;;;;;5.35;1.85;;;24.40;99.90;;;;;;5071067;28;20100;-78
2022/08/28 09:24:47;;;;;;;2.10;1.63;;;24.50;99.90;;;;;;5072797;28;20136;-78
2022/08/28 09:27:26;;;;;;;2.45;1.63;;;24.70;99.90;;;;;;5072560;28;20082;-79
2022/08/28 09:29:59;;;;;;;2.03;1.85;;;24.80;99.90;;;;;;5072700;28;20376;-81
2022/08/28 09:32:33;;;;;;;3.35;1.88;;;24.80;99.90;;;;;;5072818;28;20498;-80
2022/08/28 09:34:58;;;;;;;2.22;2.03;;;25.00;99.90;;;;;;5072803;28;20026;-80
2022/08/28 09:37:26;;;;;;;5.00;2.17;;;25.10;99.90;;;;;;5071580;28;20099;-81
2022/08/28 09:40:25;;;;;;;1.90;1.80;;;25.20;99.90;;;;;;5071173;28;20028;-77
2022/08/28 09:43:27;;;;;;;5.80;1.75;;;25.30;99.90;;;;;;5091062;28;20063;-80
2022/08/28 09:46:06;;;;;;;2.10;1.90;;;25.40;99.90;;;;;;5089728;28;20028;-80
2022/08/28 09:48:40;;;;;;;1.88;1.77;;;25.40;99.90;;;;;;5091112;28;20016;-79
2022/08/28 09:51:12;;;;;;;2.95;2.35;;;25.50;99.80;;;;;;5092381;28;20020;-80
2022/08/28 09:54:03;;;;;;;2.63;2.42;;;25.60;99.90;;;;;;5092822;28;20023;-78
2022/08/28 09:56:35;;;;;;;2.78;2.10;;;25.60;99.10;;;;;;5087955;28;20473;-80
2022/08/28 09:59:10;;;;;;;2.28;2.08;;;25.70;99.20;;;;;;5092468;28;20045;-79
2022/08/28 10:01:45;;;;;;;4.75;1.88;;;25.80;98.80;;;;;;5092621;28;20023;-81
2022/08/28 10:04:19;;;;;;;2.30;2.10;;;25.70;99.30;;;;;;5091290;28;20028;-77
2022/08/28 10:06:58;;;;;;;4.63;2.40;;;25.70;99.80;;;;;;5090482;28;20020;-79
2022/08/28 10:09:24;;;;;;;2.15;1.85;;;25.80;99.20;;;;;;5091669;28;20020;-79
2022/08/28 10:12:05;;;;;;;3.75;2.15;;;25.70;98.80;;;;;;5092163;28;20423;-80
2022/08/28 10:14:58;;;;;;;1.92;1.70;;;25.70;98.60;;;;;;5092882;28;20020;-80
2022/08/28 10:17:54;;;;;;;3.88;2.00;;;25.60;99.20;;;;;;5092258;28;20055;-78
2022/08/28 10:20:41;;;;;;;3.17;1.95;;;25.70;98.50;;;;;;5092496;28;20043;-80
2022/08/28 10:23:24;;;;;;;4.30;2.33;;;25.70;98.10;;;;;;5090884;28;20127;-80
2022/08/28 10:26:27;;;;;;;2.13;2.03;;;25.70;97.70;;;;;;5092292;28;20032;-77
2022/08/28 10:29:10;;;;;;;3.17;2.28;;;25.70;96.50;;;;;;5092197;28;20103;-80
2022/08/28 10:31:48;;;;;;;5.50;2.03;;;25.80;97.10;;;;;;5092272;28;20085;-79
2022/08/28 10:34:26;;;;;;;4.57;1.85;;;25.80;98.00;;;;;;5091041;28;20399;-78
2022/08/28 10:37:19;;;;;;;3.00;2.35;;;25.90;97.20;;;;;;5092302;28;20036;-79
2022/08/28 10:40:12;;;;;;;2.72;2.17;;;25.90;96.80;;;;;;5093557;28;20024;-78
2022/08/28 10:42:44;;;;;;;3.17;1.92;;;25.90;96.60;;;;;;5094320;28;20032;-80
2022/08/28 10:45:12;;;;;;;2.35;1.63;;;25.90;95.80;;;;;;5095639;28;20028;-80
2022/08/28 10:47:41;;;;;;;1.70;1.60;;;25.90;96.10;;;;;;5092793;28;20082;-80
2022/08/28 10:50:41;;;;;;;2.63;2.10;;;25.90;96.50;;;;;;5095751;28;20028;-80
2022/08/28 10:53:12;;;;;;;2.83;2.00;;;25.90;96.50;;;;;;5096202;28;20024;-79
2022/08/28 10:55:50;;;;;;;3.47;2.55;;;25.90;96.10;;;;;;5094788;28;20035;-79
2022/08/28 10:58:16;;;;;;;6.35;1.92;;;26.00;96.50;;;;;;5094481;28;20115;-78
2022/08/28 11:00:42;;;;;;;5.50;2.22;;;26.00;96.30;;;;;;5095560;28;20118;-79
2022/08/28 11:03:17;;;;;;;2.95;2.05;;;26.20;96.50;;;;;;5095381;28;20077;-78
2022/08/28 11:05:51;;;;;;;4.00;2.30;;;26.40;96.30;;;;;;5095775;28;20682;-80
2022/08/28 11:08:29;;;;;;;3.72;1.85;;;26.60;95.80;;;;;;5095766;28;20591;-77
2022/08/28 11:10:59;;;;;;;2.33;2.10;;;26.80;94.40;;;;;;5095913;28;20483;-78
2022/08/28 11:13:52;;;;;;;3.15;2.45;;;26.70;93.10;;;;;;5094785;28;20345;-78
2022/08/28 11:16:22;;;;;;;2.78;2.13;;;26.80;92.70;;;;;;5096033;28;20447;-78
2022/08/28 11:19:21;;;;;;;2.50;2.30;;;26.90;92.30;;;;;;5094384;28;20055;-78
2022/08/28 11:21:50;;;;;;;1.50;1.40;;;26.90;92.10;;;;;;5095024;28;20040;-78
2022/08/28 11:24:22;;;;;;;2.00;1.50;;;26.90;91.90;;;;;;5096195;28;20036;-79
2022/08/28 11:27:04;;;;;;;1.88;1.73;;;26.80;92.30;;;;;;5095880;28;20437;-76
2022/08/28 11:29:55;;;;;;;2.33;2.05;;;26.80;92.00;;;;;;5094577;28;20352;-79
2022/08/28 11:32:38;;;;;;;3.33;2.05;;;27.10;91.90;;;;;;5095764;28;20016;-78
2022/08/28 11:35:19;;;;;;;5.65;2.30;;;27.30;91.70;;;;;;5096042;28;20028;-78
2022/08/28 11:37:50;;;;;;;2.67;1.65;;;27.50;91.30;;;;;;5094410;28;20020;-76
2022/08/28 11:40:52;;;;;;;3.60;1.95;;;27.60;91.20;;;;;;5095908;28;20020;-76
2022/08/28 11:43:19;;;;;;;2.90;2.13;;;27.70;89.80;;;;;;5094416;28;20867;-77
2022/08/28 11:45:45;;;;;;;2.22;1.80;;;27.60;89.00;;;;;;5094379;28;20021;-77
2022/08/28 11:48:36;;;;;;;2.15;1.73;;;27.60;89.80;;;;;;5095630;28;20012;-78
2022/08/28 11:51:07;;;;;;;1.75;1.65;;;27.50;88.40;;;;;;5094237;28;20020;-78
2022/08/28 11:53:46;;;;;;;1.55;1.45;;;27.50;86.20;;;;;;5094413;28;20114;-76
2022/08/28 11:56:34;;;;;;;3.22;1.85;;;27.50;83.70;;;;;;5095586;28;20467;-75
2022/08/28 11:59:18;;;;;;;2.38;2.05;;;27.60;85.90;;;;;;5094566;28;20027;-78
2022/08/28 12:01:44;;;;;;;2.83;1.73;;;27.70;85.70;;;;;;5094401;28;20016;-80
2022/08/28 12:04:13;;;;;;;2.47;1.85;;;27.90;86.60;;;;;;5095649;28;20093;-79
2022/08/28 12:06:50;;;;;;;3.58;1.90;;;27.90;87.10;;;;;;5096411;28;20024;-79
2022/08/28 12:09:25;;;;;;;2.25;2.05;;;27.80;87.40;;;;;;5096227;28;20028;-77
2022/08/28 12:12:03;;;;;;;1.88;1.55;;;27.90;86.80;;;;;;5096247;28;20062;-78
2022/08/28 12:14:29;;;;;;;1.98;1.88;;;27.90;89.20;;;;;;5096080;28;20084;-80
2022/08/28 12:16:57;;;;;;;2.08;1.88;;;27.80;88.30;;;;;;5095973;28;20016;-77
2022/08/28 12:19:32;;;;;;;2.47;1.90;;;27.80;87.60;;;;;;5095963;28;20044;-76
2022/08/28 12:22:04;;;;;;;2.17;1.73;;;27.60;86.70;;;;;;5095172;28;20101;-79
2022/08/28 12:24:32;;;;;;;5.63;1.95;;;27.40;87.70;;;;;;5096194;28;20028;-81
2022/08/28 12:27:01;;;;;;;2.13;1.80;;;27.20;87.10;;;;;;5093900;28;20028;-76
2022/08/28 12:29:37;;;;;;;2.05;1.70;;;27.00;86.90;;;;;;5099024;28;20033;-79
2022/08/28 12:32:12;;;;;;;2.35;2.00;;;27.00;84.40;;;;;;5096185;28;20016;-79
2022/08/28 12:34:56;;;;;;;;;;;26.90;88.60;;;;;;5096579;28;20035;-78
2022/08/28 12:37:38;;;;;;;2.67;1.95;;;26.80;90.00;;;;;;5095626;28;19984;-76
2022/08/28 12:40:30;;;;;;;3.10;2.25;;;26.70;90.60;;;;;;5094094;28;20031;-79
2022/08/28 12:43:01;;;;;;;2.90;2.00;;;26.70;90.60;;;;;;5095090;28;20072;-75
2022/08/28 12:45:44;;;;;;;2.67;2.33;;;26.70;91.60;;;;;;5095960;28;20047;-76
2022/08/28 12:48:24;;;;;;;2.50;1.88;;;26.80;91.50;;;;;;5094041;28;20047;-78
2022/08/28 12:51:05;;;;;;;3.30;1.77;;;26.90;91.10;;;;;;5096031;28;20379;-75
2022/08/28 12:53:41;;;;;;;3.03;2.03;;;27.20;91.10;;;;;;5094210;28;20028;-79
2022/08/28 12:56:09;;;;;;;2.53;1.65;;;27.40;90.30;;;;;;5095520;28;20842;-78
2022/08/28 12:58:38;;;;;;;4.53;2.00;;;27.50;90.00;;;;;;5096169;28;20101;-79
2022/08/28 13:01:12;;;;;;;1.88;1.70;;;27.60;94.30;;;;;;5094761;28;20016;-75
2022/08/28 13:04:27;;;;;;;3.40;1.90;;;27.80;89.00;;;;;;5095902;28;20028;-78
2022/08/28 13:07:05;;;;;;;2.47;2.28;;;27.70;88.00;;;;;;5093900;28;20032;-76
2022/08/28 13:09:31;;;;;;;3.47;1.95;;;27.60;88.80;;;;;;5095545;28;20032;-78
2022/08/28 13:11:56;;;;;;;3.30;1.88;;;27.50;88.50;;;;;;5095503;28;20020;-76
2022/08/28 13:14:37;;;;;;;2.38;2.08;;;27.40;90.10;;;;;;5095503;28;20081;-76